createdAt,value
2022-10-09T00:01:25.792Z,11.50
2022-10-09T00:03:54.541Z,11.50
2022-10-09T00:06:23.974Z,11.40
2022-10-09T00:08:50.985Z,11.50
2022-10-09T00:11:22.107Z,11.50
2022-10-09T00:13:49.948Z,11.50
2022-10-09T00:16:18.392Z,11.50
2022-10-09T00:18:45.763Z,11.60
2022-10-09T00:21:32.976Z,11.60
2022-10-09T00:24:02.439Z,11.60
2022-10-09T00:26:29.383Z,11.50
2022-10-09T00:28:56.524Z,11.40
2022-10-09T00:31:24.181Z,11.30
2022-10-09T00:33:51.176Z,11.30
2022-10-09T00:36:21.314Z,11.20
2022-10-09T00:38:48.496Z,11.00
2022-10-09T00:41:22.102Z,10.90
2022-10-09T00:43:50.764Z,10.90
2022-10-09T00:46:33.636Z,11.00
2022-10-09T00:49:26.692Z,11.10
2022-10-09T00:51:56.099Z,11.10
2022-10-09T00:54:25.234Z,11.20
2022-10-09T00:56:52.361Z,11.40
2022-10-09T00:59:19.724Z,11.30
2022-10-09T01:01:47.007Z,11.30
2022-10-09T01:04:14.060Z,11.20
2022-10-09T01:07:00.102Z,11.20
2022-10-09T01:10:02.279Z,11.30
2022-10-09T01:13:00.040Z,11.30
2022-10-09T01:15:49.393Z,11.30
2022-10-09T01:18:39.718Z,11.30
2022-10-09T01:21:23.234Z,11.10
2022-10-09T01:23:52.813Z,11.00
2022-10-09T01:26:30.821Z,11.00
2022-10-09T01:29:05.102Z,11.00
2022-10-09T01:31:37.182Z,11.00
2022-10-09T01:34:05.292Z,11.00
2022-10-09T01:36:33.205Z,11.00
2022-10-09T01:39:02.600Z,11.00
2022-10-09T01:41:30.096Z,11.00
2022-10-09T01:44:00.369Z,11.00
2022-10-09T01:46:28.841Z,11.00
2022-10-09T01:49:21.249Z,11.10
2022-10-09T01:52:05.486Z,11.10
2022-10-09T01:54:44.461Z,11.10
2022-10-09T01:57:13.972Z,11.10
2022-10-09T01:59:42.614Z,11.10
2022-10-09T02:02:10.528Z,11.00
2022-10-09T02:04:40.370Z,11.00
2022-10-09T02:07:07.704Z,11.00
2022-10-09T02:09:36.047Z,11.00
2022-10-09T02:12:07.544Z,11.00
2022-10-09T02:14:35.611Z,11.00
2022-10-09T02:17:17.392Z,11.00
2022-10-09T02:19:54.664Z,10.90
2022-10-09T02:22:33.380Z,10.90
2022-10-09T02:25:03.952Z,11.00
2022-10-09T02:27:31.188Z,11.00
2022-10-09T02:29:59.477Z,11.00
2022-10-09T02:32:26.391Z,11.10
2022-10-09T02:34:53.269Z,11.10
2022-10-09T02:37:20.073Z,11.00
2022-10-09T02:39:46.854Z,11.00
2022-10-09T02:42:13.770Z,11.00
2022-10-09T02:44:40.630Z,10.90
2022-10-09T02:47:07.500Z,10.80
2022-10-09T02:49:34.452Z,10.80
2022-10-09T02:52:01.278Z,10.60
2022-10-09T02:54:28.291Z,10.70
2022-10-09T02:56:55.181Z,10.60
2022-10-09T02:59:21.959Z,10.60
2022-10-09T03:01:49.033Z,10.60
2022-10-09T03:04:16.007Z,10.60
2022-10-09T03:06:42.896Z,10.60
2022-10-09T03:09:09.708Z,10.70
2022-10-09T03:11:36.534Z,10.70
2022-10-09T03:14:03.319Z,10.80
2022-10-09T03:16:30.321Z,10.80
2022-10-09T03:18:58.492Z,10.80
2022-10-09T03:21:27.499Z,10.80
2022-10-09T03:23:54.848Z,10.70
2022-10-09T03:26:24.561Z,10.70
2022-10-09T03:28:52.623Z,10.80
2022-10-09T03:31:50.030Z,10.90
2022-10-09T03:34:11.003Z,10.90
2022-10-09T03:36:37.960Z,10.90
2022-10-09T03:39:04.807Z,10.80
2022-10-09T03:41:31.697Z,10.80
2022-10-09T03:43:58.573Z,10.90
2022-10-09T03:46:25.559Z,10.80
2022-10-09T03:48:52.477Z,10.70
2022-10-09T03:51:19.307Z,10.80
2022-10-09T03:53:46.147Z,10.70
2022-10-09T03:56:12.967Z,10.80
2022-10-09T03:58:39.820Z,10.80
2022-10-09T04:01:06.742Z,10.80
2022-10-09T04:03:33.582Z,10.80
2022-10-09T04:06:00.347Z,10.70
2022-10-09T04:08:27.715Z,10.70
2022-10-09T04:11:01.312Z,10.60
2022-10-09T04:13:28.443Z,10.60
2022-10-09T04:15:56.553Z,10.50
2022-10-09T04:18:23.513Z,10.50
2022-10-09T04:20:54.662Z,10.50
2022-10-09T04:23:27.316Z,10.60
2022-10-09T04:25:55.840Z,10.50
2022-10-09T04:28:23.762Z,10.40
2022-10-09T04:30:50.878Z,10.30
2022-10-09T04:33:17.937Z,10.20
2022-10-09T04:35:46.416Z,10.10
2022-10-09T04:38:13.257Z,10.20
2022-10-09T04:40:40.178Z,10.30
2022-10-09T04:43:07.042Z,10.30
2022-10-09T04:45:34.293Z,10.30
2022-10-09T04:48:01.536Z,10.30
2022-10-09T04:50:31.484Z,10.40
2022-10-09T04:52:58.561Z,10.30
2022-10-09T04:55:25.844Z,10.30
2022-10-09T04:57:52.689Z,10.40
2022-10-09T05:00:19.685Z,10.30
2022-10-09T05:02:46.871Z,10.30
2022-10-09T05:05:14.165Z,10.40
2022-10-09T05:07:41.001Z,10.40
2022-10-09T05:10:08.287Z,10.40
2022-10-09T05:12:35.143Z,10.50
2022-10-09T05:15:02.101Z,10.50
2022-10-09T05:17:29.125Z,10.40
2022-10-09T05:19:55.971Z,10.40
2022-10-09T05:22:22.921Z,10.40
2022-10-09T05:24:52.836Z,10.40
2022-10-09T05:27:19.699Z,10.40
2022-10-09T05:29:46.527Z,10.40
2022-10-09T05:32:14.714Z,10.40
2022-10-09T05:34:41.676Z,10.40
2022-10-09T05:37:08.467Z,10.40
2022-10-09T05:39:38.467Z,10.30
2022-10-09T05:42:05.630Z,10.30
2022-10-09T05:44:32.562Z,10.30
2022-10-09T05:46:59.475Z,10.30
2022-10-09T05:49:26.428Z,10.30
2022-10-09T05:51:54.668Z,10.30
2022-10-09T05:54:21.690Z,10.30
2022-10-09T05:56:48.754Z,10.40
2022-10-09T05:59:19.862Z,10.40
2022-10-09T06:01:51.661Z,10.40
2022-10-09T06:04:23.900Z,10.40
2022-10-09T06:06:51.281Z,10.50
2022-10-09T06:09:22.966Z,10.40
2022-10-09T06:11:51.004Z,10.50
2022-10-09T06:14:20.735Z,10.40
2022-10-09T06:16:47.859Z,10.40
2022-10-09T06:19:17.034Z,10.40
2022-10-09T06:21:45.052Z,10.10
2022-10-09T06:24:27.229Z,10.10
2022-10-09T06:26:55.618Z,10.20
2022-10-09T06:29:22.549Z,10.20
2022-10-09T06:31:49.584Z,10.40
2022-10-09T06:34:16.438Z,10.40
2022-10-09T06:36:43.395Z,10.50
2022-10-09T06:39:10.888Z,10.60
2022-10-09T06:41:38.024Z,10.60
2022-10-09T06:44:07.589Z,10.50
2022-10-09T06:46:41.480Z,10.50
2022-10-09T06:49:10.271Z,10.50
2022-10-09T06:51:37.560Z,10.60
2022-10-09T06:54:11.041Z,10.40
2022-10-09T06:56:37.942Z,10.50
2022-10-09T06:59:06.865Z,10.60
2022-10-09T07:01:34.799Z,10.60
2022-10-09T07:04:07.362Z,10.70
2022-10-09T07:06:37.953Z,10.80
2022-10-09T07:09:07.868Z,10.70
2022-10-09T07:11:40.698Z,10.80
2022-10-09T07:14:09.925Z,10.80
2022-10-09T07:16:40.062Z,10.80
2022-10-09T07:19:08.476Z,10.80
2022-10-09T07:21:35.966Z,10.80
2022-10-09T07:24:04.303Z,10.80
2022-10-09T07:26:35.061Z,10.70
2022-10-09T07:29:02.892Z,10.60
2022-10-09T07:31:29.725Z,10.60
2022-10-09T07:33:57.258Z,10.50
2022-10-09T07:36:24.833Z,10.50
2022-10-09T07:38:53.942Z,10.20
2022-10-09T07:41:22.318Z,10.20
2022-10-09T07:43:49.862Z,10.40
2022-10-09T07:46:19.122Z,10.40
2022-10-09T07:48:46.963Z,10.50
2022-10-09T07:51:15.719Z,10.20
2022-10-09T07:53:42.844Z,10.10
2022-10-09T07:56:18.483Z,10.00
2022-10-09T07:58:53.866Z,10.10
2022-10-09T08:01:22.478Z,10.00
2022-10-09T08:03:49.823Z,10.00
2022-10-09T08:06:18.090Z,10.10
2022-10-09T08:08:45.703Z,10.20
2022-10-09T08:11:17.364Z,10.30
2022-10-09T08:13:45.395Z,10.30
2022-10-09T08:16:12.790Z,10.30
2022-10-09T08:18:39.729Z,10.40
2022-10-09T08:21:10.900Z,10.40
2022-10-09T08:23:37.739Z,10.50
2022-10-09T08:26:05.564Z,10.60
2022-10-09T08:28:32.528Z,10.60
2022-10-09T08:30:59.472Z,10.60
2022-10-09T08:33:28.250Z,10.70
2022-10-09T08:35:55.100Z,10.80
2022-10-09T08:38:45.634Z,10.90
2022-10-09T08:41:15.904Z,11.00
2022-10-09T08:43:47.760Z,11.00
2022-10-09T08:46:55.245Z,11.00
2022-10-09T08:49:39.529Z,11.00
2022-10-09T08:52:21.529Z,11.10
2022-10-09T08:54:48.748Z,11.10
2022-10-09T08:57:17.602Z,11.10
2022-10-09T08:59:45.058Z,11.20
2022-10-09T09:02:33.772Z,11.20
2022-10-09T09:05:19.897Z,11.30
2022-10-09T09:08:02.903Z,11.50
2022-10-09T09:10:42.674Z,11.60
2022-10-09T09:13:27.651Z,11.50
2022-10-09T09:16:15.639Z,11.50
2022-10-09T09:18:43.062Z,11.60
2022-10-09T09:21:38.275Z,11.70
2022-10-09T09:24:13.856Z,11.80
2022-10-09T09:26:43.840Z,12.00
2022-10-09T09:29:15.255Z,12.20
2022-10-09T09:31:43.598Z,12.30
2022-10-09T09:34:22.645Z,12.40
2022-10-09T09:36:54.468Z,12.50
2022-10-09T09:40:08.201Z,12.70
2022-10-09T09:42:19.803Z,12.90
2022-10-09T09:45:00.280Z,13.00
2022-10-09T09:47:35.038Z,13.00
2022-10-09T09:50:04.520Z,13.10
2022-10-09T09:52:34.681Z,13.30
2022-10-09T09:55:01.768Z,13.30
2022-10-09T09:57:39.812Z,13.40
2022-10-09T10:00:21.111Z,13.60
2022-10-09T10:02:48.642Z,13.80
2022-10-09T10:05:21.793Z,13.90
2022-10-09T10:07:51.418Z,14.00
2022-10-09T10:10:30.343Z,14.10
2022-10-09T10:12:59.360Z,14.40
2022-10-09T10:15:32.253Z,14.90
2022-10-09T10:18:02.097Z,15.50
2022-10-09T10:20:41.997Z,15.90
2022-10-09T10:23:21.257Z,16.30
2022-10-09T10:25:48.229Z,16.70
2022-10-09T10:28:20.732Z,16.90
2022-10-09T10:30:49.764Z,17.10
2022-10-09T10:33:22.943Z,17.30
2022-10-09T10:35:52.897Z,17.50
2022-10-09T10:39:05.094Z,17.70
2022-10-09T10:41:39.315Z,17.90
2022-10-09T10:44:14.979Z,18.00
2022-10-09T10:46:53.525Z,18.10
2022-10-09T10:49:22.302Z,18.10
2022-10-09T10:52:18.369Z,18.40
2022-10-09T10:54:48.007Z,18.80
2022-10-09T10:57:31.357Z,19.10
2022-10-09T11:00:12.196Z,19.20
2022-10-09T11:03:13.890Z,19.50
2022-10-09T11:05:40.796Z,19.90
2022-10-09T11:08:46.156Z,20.40
2022-10-09T11:11:52.893Z,20.60
2022-10-09T11:14:38.356Z,20.40
2022-10-09T11:17:34.177Z,20.30
2022-10-09T11:20:18.478Z,20.20
2022-10-09T11:22:55.834Z,20.40
2022-10-09T11:25:41.354Z,20.50
2022-10-09T11:28:33.704Z,20.60
2022-10-09T11:31:29.538Z,20.50
2022-10-09T11:34:09.822Z,20.50
2022-10-09T11:36:42.389Z,20.40
2022-10-09T11:39:25.200Z,20.60
2022-10-09T11:41:54.493Z,20.80
2022-10-09T11:44:21.242Z,21.10
2022-10-09T11:47:08.908Z,21.40
2022-10-09T11:49:57.791Z,21.60
2022-10-09T11:52:39.965Z,21.60
2022-10-09T11:55:31.113Z,21.90
2022-10-09T11:58:27.539Z,22.40
2022-10-09T12:00:56.815Z,22.70
2022-10-09T12:03:34.492Z,23.20
2022-10-09T12:06:09.626Z,23.70
2022-10-09T12:08:38.073Z,24.10
2022-10-09T12:11:22.766Z,24.20
2022-10-09T12:13:51.473Z,24.10
2022-10-09T12:16:43.149Z,23.70
2022-10-09T12:19:35.884Z,22.70
2022-10-09T12:22:12.519Z,23.00
2022-10-09T12:24:43.049Z,23.80
2022-10-09T12:27:21.092Z,24.40
2022-10-09T12:29:54.560Z,24.70
2022-10-09T12:32:35.539Z,24.70
2022-10-09T12:35:16.912Z,24.50
2022-10-09T12:37:43.727Z,24.50
2022-10-09T12:40:16.915Z,24.70
2022-10-09T12:42:45.281Z,24.80
2022-10-09T12:45:22.848Z,24.80
2022-10-09T12:47:50.683Z,24.60
2022-10-09T12:50:32.961Z,24.20
2022-10-09T12:53:32.291Z,24.50
2022-10-09T12:56:01.051Z,24.80
2022-10-09T12:58:39.400Z,25.30
2022-10-09T13:01:11.734Z,25.50
2022-10-09T13:03:40.971Z,26.00
2022-10-09T13:06:19.159Z,26.60
2022-10-09T13:08:51.501Z,26.80
2022-10-09T13:11:23.125Z,26.50
2022-10-09T13:13:52.322Z,26.20
2022-10-09T13:16:19.313Z,26.10
2022-10-09T13:19:20.405Z,26.10
2022-10-09T13:21:59.870Z,26.40
2022-10-09T13:24:26.991Z,26.80
2022-10-09T13:26:54.748Z,27.10
2022-10-09T13:29:22.664Z,27.20
2022-10-09T13:31:50.560Z,27.30
2022-10-09T13:34:19.083Z,26.80
2022-10-09T13:36:46.338Z,27.00
2022-10-09T13:39:17.027Z,27.30
2022-10-09T13:41:46.364Z,27.40
2022-10-09T13:44:13.474Z,27.40
2022-10-09T13:46:40.723Z,27.50
2022-10-09T13:49:07.936Z,27.70
2022-10-09T13:51:36.361Z,28.10
2022-10-09T13:54:04.109Z,28.50
2022-10-09T13:56:31.510Z,28.50
2022-10-09T13:58:59.939Z,28.50
2022-10-09T14:01:30.370Z,28.50
2022-10-09T14:03:57.753Z,28.40
2022-10-09T14:06:25.243Z,28.50
2022-10-09T14:08:53.461Z,28.60
2022-10-09T14:11:20.981Z,28.80
2022-10-09T14:13:48.530Z,28.70
2022-10-09T14:16:16.659Z,28.30
2022-10-09T14:18:44.097Z,28.40
2022-10-09T14:21:15.870Z,28.20
2022-10-09T14:23:44.082Z,27.40
2022-10-09T14:26:11.388Z,27.10
2022-10-09T14:28:39.700Z,26.90
2022-10-09T14:31:08.062Z,26.80
2022-10-09T14:33:38.679Z,26.40
2022-10-09T14:36:12.931Z,26.70
2022-10-09T14:38:44.077Z,27.40
2022-10-09T14:41:14.271Z,27.90
2022-10-09T14:43:45.292Z,27.90
2022-10-09T14:46:17.161Z,27.90
2022-10-09T14:48:46.348Z,28.10
2022-10-09T14:51:20.447Z,28.40
2022-10-09T14:53:48.989Z,28.80
2022-10-09T14:56:21.307Z,29.00
2022-10-09T14:58:48.863Z,29.10
2022-10-09T15:01:19.489Z,29.40
2022-10-09T15:03:48.535Z,29.50
2022-10-09T15:06:24.237Z,29.20
2022-10-09T15:08:55.980Z,28.50
2022-10-09T15:11:24.517Z,27.60
2022-10-09T15:13:52.658Z,27.40
2022-10-09T15:16:21.114Z,27.00
2022-10-09T15:18:51.459Z,27.30
2022-10-09T15:21:22.180Z,27.30
2022-10-09T15:24:00.581Z,27.40
2022-10-09T15:26:33.230Z,27.40
2022-10-09T15:29:06.367Z,27.30
2022-10-09T15:31:39.352Z,27.10
2022-10-09T15:34:08.381Z,27.00
2022-10-09T15:36:42.264Z,27.10
2022-10-09T15:39:25.096Z,27.20
2022-10-09T15:41:58.482Z,27.20
2022-10-09T15:44:31.640Z,27.30
2022-10-09T15:46:58.987Z,27.30
2022-10-09T15:49:26.139Z,27.20
2022-10-09T15:51:53.494Z,26.90
2022-10-09T15:54:21.396Z,26.90
2022-10-09T15:56:48.987Z,26.30
2022-10-09T15:59:19.135Z,25.20
2022-10-09T16:01:46.535Z,24.00
2022-10-09T16:04:16.204Z,23.10
2022-10-09T16:06:43.487Z,22.30
2022-10-09T16:09:13.690Z,21.60
2022-10-09T16:11:40.940Z,21.00
2022-10-09T16:14:08.215Z,20.70
2022-10-09T16:16:35.466Z,20.40
2022-10-09T16:19:03.373Z,19.80
2022-10-09T16:21:31.487Z,19.50
2022-10-09T16:23:59.803Z,19.00
2022-10-09T16:26:29.322Z,18.70
2022-10-09T16:28:56.818Z,18.40
2022-10-09T16:31:37.697Z,18.30
2022-10-09T16:34:06.637Z,18.10
2022-10-09T16:36:33.968Z,17.90
2022-10-09T16:39:01.971Z,17.80
2022-10-09T16:41:28.967Z,17.80
2022-10-09T16:43:57.536Z,17.60
2022-10-09T16:46:27.529Z,17.50
2022-10-09T16:48:57.686Z,17.40
2022-10-09T16:51:30.522Z,17.20
2022-10-09T16:54:00.679Z,17.10
2022-10-09T16:56:33.035Z,17.10
2022-10-09T16:59:02.954Z,17.00
2022-10-09T17:01:30.619Z,17.00
2022-10-09T17:04:00.137Z,16.90
2022-10-09T17:06:28.018Z,16.80
2022-10-09T17:08:57.758Z,16.70
2022-10-09T17:11:27.385Z,16.60
2022-10-09T17:13:57.129Z,16.50
2022-10-09T17:16:27.720Z,16.30
2022-10-09T17:18:55.452Z,16.10
2022-10-09T17:21:27.923Z,15.90
2022-10-09T17:24:00.484Z,15.70
2022-10-09T17:26:31.684Z,15.60
2022-10-09T17:28:59.991Z,15.40
2022-10-09T17:31:28.038Z,15.30
2022-10-09T17:34:01.014Z,15.20
2022-10-09T17:36:30.689Z,15.00
2022-10-09T17:38:58.225Z,15.00
2022-10-09T17:41:26.936Z,14.80
2022-10-09T17:43:55.606Z,14.80
2022-10-09T17:46:24.087Z,14.70
2022-10-09T17:48:53.793Z,14.60
2022-10-09T17:51:42.391Z,14.70
2022-10-09T17:54:13.193Z,14.80
2022-10-09T17:56:40.328Z,14.90
2022-10-09T17:59:07.891Z,14.80
2022-10-09T18:01:35.272Z,15.00
2022-10-09T18:04:02.603Z,15.10
2022-10-09T18:06:34.980Z,15.20
2022-10-09T18:09:02.677Z,15.30
2022-10-09T18:11:30.187Z,15.30
2022-10-09T18:13:57.568Z,15.30
2022-10-09T18:16:36.267Z,15.30
2022-10-09T18:19:11.463Z,15.20
2022-10-09T18:21:41.659Z,15.10
2022-10-09T18:24:08.622Z,15.10
2022-10-09T18:26:35.518Z,15.10
2022-10-09T18:29:03.113Z,15.10
2022-10-09T18:31:30.473Z,15.00
2022-10-09T18:33:59.099Z,15.00
2022-10-09T18:36:31.376Z,15.00
2022-10-09T18:39:02.792Z,14.90
2022-10-09T18:41:29.685Z,14.80
2022-10-09T18:43:59.916Z,14.80
2022-10-09T18:46:29.210Z,14.70
2022-10-09T18:48:56.376Z,14.60
2022-10-09T18:51:26.014Z,14.70
2022-10-09T18:53:57.390Z,14.70
2022-10-09T18:56:24.716Z,14.70
2022-10-09T18:58:52.833Z,14.70
2022-10-09T19:01:20.140Z,14.70
2022-10-09T19:03:50.361Z,14.70
2022-10-09T19:06:18.915Z,14.60
2022-10-09T19:08:46.355Z,14.60
2022-10-09T19:11:14.601Z,14.60
2022-10-09T19:13:45.187Z,14.60
2022-10-09T19:16:12.173Z,14.60
2022-10-09T19:18:39.685Z,14.40
2022-10-09T19:21:06.729Z,14.30
2022-10-09T19:23:33.540Z,14.10
2022-10-09T19:26:00.869Z,14.00
2022-10-09T19:28:32.879Z,13.90
2022-10-09T19:31:02.548Z,13.80
2022-10-09T19:33:29.718Z,13.60
2022-10-09T19:35:57.499Z,13.30
2022-10-09T19:38:26.429Z,13.00
2022-10-09T19:40:54.448Z,12.80
2022-10-09T19:43:23.519Z,12.60
2022-10-09T19:46:00.009Z,12.40
2022-10-09T19:48:27.003Z,12.20
2022-10-09T19:50:54.119Z,12.20
2022-10-09T19:53:21.148Z,12.10
2022-10-09T19:55:48.064Z,12.00
2022-10-09T19:58:16.302Z,11.90
2022-10-09T20:00:46.806Z,11.90
2022-10-09T20:03:13.954Z,11.70
2022-10-09T20:05:41.146Z,11.60
2022-10-09T20:08:09.105Z,11.50
2022-10-09T20:10:39.233Z,11.60
2022-10-09T20:13:06.212Z,11.50
2022-10-09T20:15:33.341Z,11.50
2022-10-09T20:18:00.223Z,11.60
2022-10-09T20:20:27.361Z,11.60
2022-10-09T20:22:54.415Z,11.70
2022-10-09T20:25:21.609Z,11.70
2022-10-09T20:27:48.581Z,11.80
2022-10-09T20:30:15.448Z,11.80
2022-10-09T20:32:42.364Z,11.70
2022-10-09T20:35:10.080Z,11.70
2022-10-09T20:37:36.925Z,11.60
2022-10-09T20:40:04.054Z,11.50
2022-10-09T20:42:31.920Z,11.50
2022-10-09T20:44:59.095Z,11.60
2022-10-09T20:47:25.945Z,11.60
2022-10-09T20:49:52.796Z,11.60
2022-10-09T20:52:19.610Z,11.60
2022-10-09T20:54:46.487Z,11.60
2022-10-09T20:57:13.399Z,11.60
2022-10-09T20:59:40.239Z,11.60
2022-10-09T21:02:07.314Z,11.60
2022-10-09T21:04:34.333Z,11.60
2022-10-09T21:07:01.104Z,11.60
2022-10-09T21:09:32.950Z,11.50
2022-10-09T21:12:00.169Z,11.40
2022-10-09T21:14:26.999Z,11.30
2022-10-09T21:16:54.236Z,11.30
2022-10-09T21:19:21.108Z,11.20
2022-10-09T21:21:51.024Z,11.10
2022-10-09T21:24:18.090Z,11.00
2022-10-09T21:26:47.119Z,11.00
2022-10-09T21:29:14.532Z,11.10
2022-10-09T21:31:41.959Z,11.20
2022-10-09T21:34:08.892Z,11.20
2022-10-09T21:37:08.863Z,11.20
2022-10-09T21:39:34.317Z,11.20
2022-10-09T21:42:01.200Z,11.20
2022-10-09T21:44:28.686Z,11.20
2022-10-09T21:46:55.645Z,11.20
2022-10-09T21:49:25.303Z,11.20
2022-10-09T21:51:52.231Z,11.10
2022-10-09T21:54:19.791Z,11.10
2022-10-09T21:56:46.680Z,11.00
2022-10-09T21:59:13.804Z,11.00
2022-10-09T22:01:40.688Z,10.90
2022-10-09T22:04:07.614Z,10.90
2022-10-09T22:06:34.500Z,11.00
2022-10-09T22:09:01.354Z,10.90
2022-10-09T22:11:28.956Z,10.80
2022-10-09T22:13:56.383Z,10.70
2022-10-09T22:16:23.303Z,10.70
2022-10-09T22:18:50.109Z,10.70
2022-10-09T22:21:17.316Z,10.60
2022-10-09T22:23:44.687Z,10.60
2022-10-09T22:26:17.327Z,10.80
2022-10-09T22:28:45.901Z,10.70
2022-10-09T22:31:15.597Z,10.80
2022-10-09T22:33:43.029Z,10.70
2022-10-09T22:36:13.184Z,10.70
2022-10-09T22:38:41.402Z,10.70
2022-10-09T22:41:18.405Z,10.80
2022-10-09T22:43:47.583Z,10.70
2022-10-09T22:46:21.835Z,10.60
2022-10-09T22:48:48.773Z,10.60
2022-10-09T22:51:17.658Z,10.60
2022-10-09T22:53:45.457Z,10.60
2022-10-09T22:56:18.551Z,10.70
2022-10-09T22:58:46.762Z,10.70
2022-10-09T23:01:17.465Z,10.80
2022-10-09T23:03:45.246Z,10.80
2022-10-09T23:06:17.757Z,10.80
2022-10-09T23:08:46.740Z,10.80
2022-10-09T23:11:14.645Z,10.80
2022-10-09T23:13:41.707Z,10.80
2022-10-09T23:16:10.767Z,10.80
2022-10-09T23:18:38.377Z,10.90
2022-10-09T23:21:07.935Z,10.90
2022-10-09T23:23:35.086Z,10.90
2022-10-09T23:26:06.808Z,10.90
2022-10-09T23:28:34.674Z,10.90
2022-10-09T23:31:06.802Z,10.90
2022-10-09T23:33:34.288Z,10.80
2022-10-09T23:36:04.789Z,10.80
2022-10-09T23:38:31.927Z,10.80
2022-10-09T23:41:00.999Z,10.80
2022-10-09T23:43:30.991Z,10.80
2022-10-09T23:46:01.094Z,10.80
2022-10-09T23:48:28.771Z,10.80
2022-10-09T23:50:57.147Z,10.90
2022-10-09T23:53:26.025Z,10.90
2022-10-09T23:55:54.051Z,10.90
2022-10-09T23:58:21.788Z,10.80
